createdAt,value
2023-04-29T00:02:20.649Z,14.63
2023-04-29T00:04:48.102Z,13.70
2023-04-29T00:07:15.336Z,20.30
2023-04-29T00:09:43.764Z,16.87
2023-04-29T00:12:10.880Z,14.10
2023-04-29T00:14:37.989Z,22.57
2023-04-29T00:17:05.469Z,20.67
2023-04-29T00:19:32.735Z,20.33
2023-04-29T00:21:59.868Z,27.43
2023-04-29T00:24:26.931Z,27.17
2023-04-29T00:26:55.388Z,28.07
2023-04-29T00:29:22.437Z,37.80
2023-04-29T00:31:49.608Z,37.20
2023-04-29T00:34:16.761Z,48.57
2023-04-29T00:36:43.909Z,46.67
2023-04-29T00:39:13.272Z,46.27
2023-04-29T00:41:42.395Z,45.57
2023-04-29T00:44:11.690Z,58.33
2023-04-29T00:46:38.981Z,63.73
2023-04-29T00:49:07.195Z,65.03
2023-04-29T00:51:34.735Z,70.23
2023-04-29T00:54:01.935Z,68.80
2023-04-29T00:56:30.370Z,71.27
2023-04-29T00:58:58.953Z,75.50
2023-04-29T01:01:27.686Z,76.43
2023-04-29T01:03:55.388Z,85.63
2023-04-29T01:06:27.328Z,80.63
2023-04-29T01:08:58.817Z,79.30
2023-04-29T01:11:29.572Z,91.43
2023-04-29T01:13:59.462Z,84.87
2023-04-29T01:16:31.526Z,85.73
2023-04-29T01:19:05.631Z,85.80
2023-04-29T01:21:46.111Z,94.57
2023-04-29T01:24:14.680Z,75.33
2023-04-29T01:26:43.695Z,87.30
2023-04-29T01:29:23.447Z,84.33
2023-04-29T01:31:54.422Z,79.57
2023-04-29T01:34:27.945Z,81.27
2023-04-29T01:37:00.923Z,81.20
2023-04-29T01:39:33.908Z,89.40
2023-04-29T01:42:15.573Z,83.17
2023-04-29T01:44:43.510Z,87.30
2023-04-29T01:47:13.932Z,90.87
2023-04-29T01:49:45.202Z,98.00
2023-04-29T01:52:12.345Z,92.87
2023-04-29T01:54:42.698Z,95.73
2023-04-29T01:57:09.901Z,84.57
2023-04-29T02:00:07.016Z,86.27
2023-04-29T02:02:48.992Z,111.47
2023-04-29T02:05:25.016Z,98.87
2023-04-29T02:07:57.454Z,95.63
2023-04-29T02:10:26.048Z,102.23
2023-04-29T02:13:01.727Z,93.10
2023-04-29T02:15:29.751Z,116.37
2023-04-29T02:17:56.999Z,116.93
2023-04-29T02:20:24.111Z,118.70
2023-04-29T02:22:51.239Z,113.00
2023-04-29T02:25:18.322Z,93.17
2023-04-29T02:27:46.700Z,93.47
2023-04-29T02:30:13.817Z,97.93
2023-04-29T02:32:41.592Z,87.53
2023-04-29T02:35:09.129Z,93.07
2023-04-29T02:37:36.227Z,113.47
2023-04-29T02:40:03.421Z,86.70
2023-04-29T02:42:31.291Z,85.30
2023-04-29T02:44:59.739Z,83.40
2023-04-29T02:47:26.874Z,78.67
2023-04-29T02:49:54.165Z,77.67
2023-04-29T02:52:21.472Z,77.03
2023-04-29T02:54:49.007Z,70.43
2023-04-29T02:57:16.081Z,78.87
2023-04-29T02:59:43.298Z,74.13
2023-04-29T03:02:11.770Z,66.07
2023-04-29T03:04:39.236Z,77.67
2023-04-29T03:07:06.386Z,68.47
2023-04-29T03:09:33.446Z,62.60
2023-04-29T03:12:00.580Z,74.03
2023-04-29T03:14:27.648Z,72.37
2023-04-29T03:16:54.803Z,72.47
2023-04-29T03:19:23.374Z,70.10
2023-04-29T03:21:53.334Z,89.73
2023-04-29T03:24:21.310Z,80.73
2023-04-29T03:26:48.376Z,92.37
2023-04-29T03:29:15.450Z,89.27
2023-04-29T03:31:42.695Z,87.67
2023-04-29T03:34:10.073Z,83.87
2023-04-29T03:36:42.123Z,95.97
2023-04-29T03:39:09.368Z,86.43
2023-04-29T03:41:36.582Z,78.53
2023-04-29T03:44:03.766Z,96.10
2023-04-29T03:46:31.001Z,92.23
2023-04-29T03:48:58.378Z,97.30
2023-04-29T03:51:26.058Z,105.03
2023-04-29T03:54:01.183Z,99.70
2023-04-29T03:56:28.425Z,92.20
2023-04-29T03:58:55.595Z,83.20
2023-04-29T04:01:25.260Z,80.10
2023-04-29T04:03:52.965Z,81.70
2023-04-29T04:06:20.166Z,79.33
2023-04-29T04:08:47.565Z,75.70
2023-04-29T04:11:22.629Z,78.60
2023-04-29T04:13:55.904Z,93.73
2023-04-29T04:16:24.627Z,86.53
2023-04-29T04:18:52.470Z,88.23
2023-04-29T04:21:19.675Z,63.10
2023-04-29T04:23:54.731Z,82.60
2023-04-29T04:26:25.143Z,74.30
2023-04-29T04:29:13.810Z,79.53
2023-04-29T04:31:54.038Z,79.83
2023-04-29T04:34:22.097Z,73.67
2023-04-29T04:36:51.599Z,82.80
2023-04-29T04:39:18.866Z,71.47
2023-04-29T04:41:47.680Z,82.73
2023-04-29T04:44:15.013Z,64.70
2023-04-29T04:46:51.605Z,62.80
2023-04-29T04:49:32.353Z,56.70
2023-04-29T04:51:59.680Z,52.63
2023-04-29T04:54:26.824Z,53.90
2023-04-29T04:57:05.150Z,46.37
2023-04-29T04:59:32.251Z,50.30
2023-04-29T05:01:59.461Z,51.03
2023-04-29T05:04:26.688Z,52.83
2023-04-29T05:06:54.071Z,52.40
2023-04-29T05:09:22.825Z,47.60
2023-04-29T05:11:49.933Z,60.63
2023-04-29T05:14:19.498Z,49.40
2023-04-29T05:16:46.702Z,49.60
2023-04-29T05:19:13.893Z,50.73
2023-04-29T05:21:41.414Z,50.67
2023-04-29T05:24:10.608Z,52.73
2023-04-29T05:26:38.231Z,47.93
2023-04-29T05:29:06.669Z,43.80
2023-04-29T05:31:43.814Z,42.07
2023-04-29T05:34:10.904Z,40.73
2023-04-29T05:36:37.994Z,41.80
2023-04-29T05:39:05.534Z,38.17
2023-04-29T05:41:32.651Z,38.10
2023-04-29T05:43:59.840Z,44.73
2023-04-29T05:46:27.052Z,37.47
2023-04-29T05:48:55.751Z,40.70
2023-04-29T05:51:23.033Z,41.50
2023-04-29T05:53:50.221Z,50.77
2023-04-29T05:56:18.619Z,42.90
2023-04-29T05:58:45.698Z,39.20
2023-04-29T06:01:12.946Z,33.63
2023-04-29T06:03:40.204Z,38.10
2023-04-29T06:06:27.712Z,37.40
2023-04-29T06:09:05.204Z,34.83
2023-04-29T06:11:35.712Z,37.17
2023-04-29T06:14:02.795Z,41.30
2023-04-29T06:16:29.993Z,35.33
2023-04-29T06:18:57.120Z,41.30
2023-04-29T06:21:24.201Z,38.50
2023-04-29T06:23:52.647Z,37.27
2023-04-29T06:26:21.396Z,32.40
2023-04-29T06:28:48.572Z,35.10
2023-04-29T06:31:16.194Z,39.17
2023-04-29T06:33:43.499Z,40.87
2023-04-29T06:36:10.878Z,39.53
2023-04-29T06:38:58.901Z,47.23
2023-04-29T06:41:52.067Z,37.07
2023-04-29T06:44:37.751Z,41.40
2023-04-29T06:47:21.026Z,39.50
2023-04-29T06:50:08.625Z,43.87
2023-04-29T06:52:35.671Z,37.03
2023-04-29T06:55:05.516Z,39.57
2023-04-29T06:57:32.615Z,38.20
2023-04-29T06:59:59.722Z,38.50
2023-04-29T07:02:26.892Z,37.07
2023-04-29T07:04:54.106Z,33.10
2023-04-29T07:07:21.240Z,33.60
2023-04-29T07:09:48.365Z,32.00
2023-04-29T07:12:16.878Z,32.93
2023-04-29T07:14:43.951Z,27.30
2023-04-29T07:17:12.748Z,33.90
2023-04-29T07:19:41.835Z,29.10
2023-04-29T07:22:08.869Z,26.13
2023-04-29T07:24:36.384Z,26.27
2023-04-29T07:27:03.804Z,30.77
2023-04-29T07:29:32.227Z,27.93
2023-04-29T07:31:59.329Z,24.73
2023-04-29T07:34:27.478Z,26.63
2023-04-29T07:36:54.582Z,27.80
2023-04-29T07:39:21.695Z,25.63
2023-04-29T07:41:52.925Z,25.67
2023-04-29T07:44:19.987Z,24.93
2023-04-29T07:46:48.616Z,25.97
2023-04-29T07:49:15.702Z,25.40
2023-04-29T07:51:42.879Z,28.37
2023-04-29T07:54:11.180Z,28.07
2023-04-29T07:56:38.225Z,27.13
2023-04-29T07:59:07.745Z,25.33
2023-04-29T08:01:34.955Z,29.60
2023-04-29T08:04:03.624Z,26.10
2023-04-29T08:06:34.561Z,28.83
2023-04-29T08:09:03.308Z,27.27
2023-04-29T08:11:30.462Z,28.77
2023-04-29T08:13:57.543Z,28.60
2023-04-29T08:16:24.626Z,27.70
2023-04-29T08:18:51.837Z,32.60
2023-04-29T08:21:20.259Z,32.73
2023-04-29T08:23:47.345Z,32.03
2023-04-29T08:26:14.581Z,31.07
2023-04-29T08:28:41.971Z,31.60
2023-04-29T08:31:09.050Z,29.37
2023-04-29T08:33:36.184Z,31.77
2023-04-29T08:36:03.767Z,32.90
2023-04-29T08:38:32.500Z,31.00
2023-04-29T08:40:59.558Z,35.47
2023-04-29T08:43:27.351Z,32.77
2023-04-29T08:45:54.726Z,27.47
2023-04-29T08:48:21.905Z,31.27
2023-04-29T08:50:49.133Z,32.40
2023-04-29T08:53:16.195Z,39.27
2023-04-29T08:55:45.663Z,41.93
2023-04-29T08:58:13.279Z,36.90
2023-04-29T09:00:40.564Z,47.27
2023-04-29T09:03:15.361Z,40.87
2023-04-29T09:05:43.670Z,44.23
2023-04-29T09:08:12.302Z,42.80
2023-04-29T09:10:40.001Z,45.37
2023-04-29T09:13:08.403Z,52.60
2023-04-29T09:15:36.588Z,55.70
2023-04-29T09:18:03.784Z,48.60
2023-04-29T09:20:30.943Z,58.50
2023-04-29T09:22:59.383Z,48.03
2023-04-29T09:25:26.531Z,64.10
2023-04-29T09:27:53.747Z,62.80
2023-04-29T09:30:22.267Z,56.13
2023-04-29T09:33:04.670Z,81.67
2023-04-29T09:35:31.881Z,60.37
2023-04-29T09:38:08.932Z,77.67
2023-04-29T09:40:46.650Z,75.47
2023-04-29T09:43:18.995Z,78.57
2023-04-29T09:45:48.146Z,72.60
2023-04-29T09:48:16.452Z,63.07
2023-04-29T09:50:44.258Z,65.00
2023-04-29T09:53:12.003Z,84.33
2023-04-29T09:55:58.502Z,68.73
2023-04-29T09:58:28.883Z,65.50
2023-04-29T10:00:58.281Z,64.07
2023-04-29T10:03:25.589Z,83.00
2023-04-29T10:05:52.715Z,72.73
2023-04-29T10:08:19.919Z,85.50
2023-04-29T10:10:46.995Z,78.57
2023-04-29T10:13:14.123Z,87.27
2023-04-29T10:15:44.579Z,72.23
2023-04-29T10:18:15.090Z,76.90
2023-04-29T10:20:45.814Z,68.80
2023-04-29T10:23:13.760Z,67.20
2023-04-29T10:25:42.213Z,77.90
2023-04-29T10:28:10.186Z,68.57
2023-04-29T10:30:37.798Z,63.93
2023-04-29T10:33:05.561Z,64.13
2023-04-29T10:35:34.276Z,67.90
2023-04-29T10:38:02.217Z,60.90
2023-04-29T10:40:31.783Z,61.67
2023-04-29T10:42:59.952Z,53.10
2023-04-29T10:45:28.145Z,52.43
2023-04-29T10:48:11.361Z,44.27
2023-04-29T10:51:00.647Z,49.37
2023-04-29T10:53:27.857Z,41.57
2023-04-29T10:55:56.975Z,46.23
2023-04-29T10:58:43.510Z,39.80
2023-04-29T11:01:11.575Z,41.90
2023-04-29T11:03:52.138Z,42.57
2023-04-29T11:06:20.824Z,43.57
2023-04-29T11:08:47.917Z,41.97
2023-04-29T11:11:15.120Z,41.07
2023-04-29T11:13:46.505Z,42.33
2023-04-29T11:16:13.641Z,45.10
2023-04-29T11:18:55.668Z,43.17
2023-04-29T11:21:24.179Z,43.37
2023-04-29T11:23:52.338Z,37.27
2023-04-29T11:26:19.968Z,39.70
2023-04-29T11:28:48.114Z,37.07
2023-04-29T11:31:15.305Z,45.73
2023-04-29T11:33:42.371Z,36.73
2023-04-29T11:36:10.128Z,42.00
2023-04-29T11:38:40.251Z,47.13
2023-04-29T11:41:07.441Z,41.97
2023-04-29T11:43:34.512Z,38.10
2023-04-29T11:46:01.888Z,38.23
2023-04-29T11:48:29.034Z,36.27
2023-04-29T11:50:58.189Z,45.47
2023-04-29T11:53:25.960Z,39.43
2023-04-29T11:55:54.796Z,36.97
2023-04-29T11:58:22.064Z,33.57
2023-04-29T12:00:49.345Z,37.17
2023-04-29T12:03:17.319Z,39.17
2023-04-29T12:05:47.064Z,38.50
2023-04-29T12:08:14.204Z,33.00
2023-04-29T12:10:41.581Z,37.03
2023-04-29T12:13:10.437Z,38.87
2023-04-29T12:15:40.090Z,35.63
2023-04-29T12:18:07.689Z,33.90
2023-04-29T12:20:34.952Z,32.83
2023-04-29T12:23:11.922Z,30.80
2023-04-29T12:25:38.967Z,29.93
2023-04-29T12:28:07.895Z,40.53
2023-04-29T12:30:38.155Z,33.77
2023-04-29T12:33:05.250Z,32.60
2023-04-29T12:35:32.394Z,32.33
2023-04-29T12:37:59.463Z,30.10
2023-04-29T12:40:27.860Z,31.77
2023-04-29T12:42:56.615Z,33.27
2023-04-29T12:45:27.367Z,31.23
2023-04-29T12:47:56.988Z,29.13
2023-04-29T12:50:29.372Z,29.90
2023-04-29T12:52:56.437Z,33.67
2023-04-29T12:55:23.508Z,28.83
2023-04-29T12:57:50.623Z,31.00
2023-04-29T13:00:17.875Z,29.03
2023-04-29T13:02:45.026Z,25.47
2023-04-29T13:05:13.630Z,32.57
2023-04-29T13:07:40.734Z,25.43
2023-04-29T13:10:08.332Z,31.70
2023-04-29T13:12:35.496Z,26.30
2023-04-29T13:15:02.567Z,23.70
2023-04-29T13:17:29.649Z,20.50
2023-04-29T13:19:56.750Z,24.57
2023-04-29T13:22:25.194Z,22.60
2023-04-29T13:24:52.486Z,22.40
2023-04-29T13:27:19.631Z,24.83
2023-04-29T13:29:46.655Z,28.60
2023-04-29T13:32:13.802Z,25.97
2023-04-29T13:34:41.019Z,23.80
2023-04-29T13:37:08.121Z,28.43
2023-04-29T13:39:38.418Z,24.93
2023-04-29T13:42:05.616Z,24.00
2023-04-29T13:44:39.710Z,20.70
2023-04-29T13:47:19.932Z,26.97
2023-04-29T13:59:53.332Z,18.47
2023-04-29T14:02:25.447Z,22.17
2023-04-29T14:04:54.001Z,21.43
2023-04-29T14:07:21.593Z,21.57
2023-04-29T14:09:48.670Z,29.00
2023-04-29T14:12:17.080Z,23.40
2023-04-29T14:14:44.138Z,22.13
2023-04-29T14:17:11.244Z,24.33
2023-04-29T14:19:38.361Z,20.57
2023-04-29T14:22:05.457Z,25.90
2023-04-29T14:24:32.514Z,23.73
2023-04-29T14:26:59.558Z,21.37
2023-04-29T14:29:27.957Z,22.80
2023-04-29T14:31:55.053Z,23.10
2023-04-29T14:34:22.201Z,23.83
2023-04-29T14:36:49.273Z,27.13
2023-04-29T14:39:16.328Z,25.43
2023-04-29T14:41:43.347Z,26.33
2023-04-29T14:44:10.392Z,24.67
2023-04-29T14:46:38.985Z,30.03
2023-04-29T14:49:06.174Z,25.53
2023-04-29T14:51:33.188Z,22.67
2023-04-29T14:54:00.287Z,20.33
2023-04-29T14:56:27.390Z,19.60
2023-04-29T14:58:54.467Z,21.87
2023-04-29T15:01:21.599Z,23.00
2023-04-29T15:03:50.105Z,25.90
2023-04-29T15:06:17.250Z,21.13
2023-04-29T15:08:44.297Z,20.63
2023-04-29T15:11:11.385Z,19.73
2023-04-29T15:13:38.487Z,21.07
2023-04-29T15:16:06.123Z,26.93
2023-04-29T15:18:33.252Z,19.97
2023-04-29T15:21:01.686Z,19.80
2023-04-29T15:23:28.896Z,20.80
2023-04-29T15:25:56.769Z,25.40
2023-04-29T15:28:23.847Z,23.00
2023-04-29T15:30:50.949Z,25.27
2023-04-29T15:33:18.127Z,23.03
2023-04-29T15:35:45.295Z,22.50
2023-04-29T15:38:13.679Z,25.50
2023-04-29T15:40:40.781Z,23.77
2023-04-29T15:43:07.884Z,23.43
2023-04-29T15:45:34.962Z,18.10
2023-04-29T15:48:02.179Z,23.67
2023-04-29T15:50:29.373Z,18.33
2023-04-29T15:52:56.452Z,19.73
2023-04-29T15:55:24.928Z,18.03
2023-04-29T15:57:51.990Z,16.23
2023-04-29T16:00:19.073Z,18.23
2023-04-29T16:02:46.243Z,16.00
2023-04-29T16:05:13.323Z,21.50
2023-04-29T16:07:40.412Z,20.97
2023-04-29T16:10:07.888Z,19.90
2023-04-29T16:12:36.418Z,15.13
2023-04-29T16:15:03.641Z,20.80
2023-04-29T16:17:32.188Z,16.67
2023-04-29T16:19:59.358Z,17.90
2023-04-29T16:22:26.487Z,16.00
2023-04-29T16:24:53.576Z,16.37
2023-04-29T16:27:20.627Z,14.80
2023-04-29T16:29:49.066Z,14.10
2023-04-29T16:32:16.187Z,17.10
2023-04-29T16:34:43.267Z,14.67
2023-04-29T16:37:10.387Z,13.73
2023-04-29T16:39:37.439Z,13.93
2023-04-29T16:42:04.538Z,16.23
2023-04-29T16:44:31.662Z,13.97
2023-04-29T16:47:00.168Z,15.30
2023-04-29T16:49:27.258Z,11.90
2023-04-29T16:51:54.336Z,16.27
2023-04-29T16:54:21.403Z,14.20
2023-04-29T16:56:50.742Z,15.77
2023-04-29T16:59:18.241Z,13.10
2023-04-29T17:01:45.556Z,14.70
2023-04-29T17:04:14.069Z,16.07
2023-04-29T17:06:41.252Z,17.70
2023-04-29T17:09:08.356Z,14.57
2023-04-29T17:11:36.444Z,20.67
2023-04-29T17:14:03.548Z,16.63
2023-04-29T17:16:30.700Z,16.03
2023-04-29T17:18:57.899Z,16.53
2023-04-29T17:21:26.277Z,14.13
2023-04-29T17:23:53.478Z,17.23
2023-04-29T17:26:20.651Z,14.53
2023-04-29T17:28:47.750Z,16.80
2023-04-29T17:31:14.845Z,16.50
2023-04-29T17:33:42.003Z,18.63
2023-04-29T17:36:09.035Z,19.67
2023-04-29T17:38:37.476Z,17.90
2023-04-29T17:41:04.566Z,18.10
2023-04-29T17:43:31.668Z,14.37
2023-04-29T17:45:58.811Z,17.23
2023-04-29T17:48:25.878Z,21.00
2023-04-29T17:50:52.944Z,16.63
2023-04-29T17:53:20.029Z,14.93
2023-04-29T17:55:48.419Z,18.40
2023-04-29T17:58:15.475Z,17.13
2023-04-29T18:00:42.569Z,12.57
2023-04-29T18:03:09.661Z,13.10
2023-04-29T18:05:36.770Z,13.27
2023-04-29T18:08:03.899Z,17.30
2023-04-29T18:10:31.059Z,14.00
2023-04-29T18:12:59.442Z,15.97
2023-04-29T18:15:26.503Z,15.53
2023-04-29T18:17:53.583Z,13.27
2023-04-29T18:20:20.772Z,15.67
2023-04-29T18:22:47.802Z,13.80
2023-04-29T18:25:14.853Z,16.90
2023-04-29T18:27:41.918Z,15.73
2023-04-29T18:30:11.079Z,16.97
2023-04-29T18:32:38.533Z,16.13
2023-04-29T18:35:06.087Z,11.60
2023-04-29T18:37:33.198Z,17.50
2023-04-29T18:40:00.234Z,17.07
2023-04-29T18:42:27.248Z,12.53
2023-04-29T18:44:54.301Z,15.53
2023-04-29T18:47:22.701Z,14.83
2023-04-29T18:49:49.784Z,10.30
2023-04-29T18:52:16.908Z,12.33
2023-04-29T18:54:43.981Z,18.30
2023-04-29T18:57:11.076Z,15.27
2023-04-29T18:59:38.177Z,10.50
2023-04-29T19:02:05.383Z,13.23
2023-04-29T19:04:34.484Z,12.73
2023-04-29T19:07:01.676Z,14.73
2023-04-29T19:09:29.197Z,13.47
2023-04-29T19:11:56.256Z,12.13
2023-04-29T19:14:23.280Z,13.43
2023-04-29T19:16:50.346Z,17.30
2023-04-29T19:19:17.395Z,16.23
2023-04-29T19:21:45.824Z,12.67
2023-04-29T19:24:12.930Z,13.27
2023-04-29T19:26:40.366Z,20.87
2023-04-29T19:29:07.507Z,14.90
2023-04-29T19:31:34.671Z,11.80
2023-04-29T19:34:01.826Z,13.20
2023-04-29T19:36:28.896Z,14.20
2023-04-29T19:38:57.480Z,10.50
2023-04-29T19:41:24.623Z,25.70
2023-04-29T19:43:51.704Z,32.47
2023-04-29T19:46:18.802Z,27.30
2023-04-29T19:48:45.873Z,13.27
2023-04-29T19:51:12.978Z,15.07
2023-04-29T19:53:40.070Z,16.17
2023-04-29T19:56:08.468Z,15.87
2023-04-29T19:58:35.563Z,15.80
2023-04-29T20:01:02.702Z,14.80
2023-04-29T20:03:29.890Z,19.47
2023-04-29T20:05:56.989Z,14.30
2023-04-29T20:08:24.134Z,18.57
2023-04-29T20:10:51.185Z,18.23
2023-04-29T20:13:19.595Z,14.97
2023-04-29T20:15:46.688Z,15.07
2023-04-29T20:18:13.765Z,17.57
2023-04-29T20:20:40.837Z,16.83
2023-04-29T20:23:07.930Z,16.03
2023-04-29T20:25:35.005Z,17.40
2023-04-29T20:28:02.119Z,19.50
2023-04-29T20:30:30.589Z,19.33
2023-04-29T20:32:57.713Z,17.63
2023-04-29T20:35:24.910Z,17.70
2023-04-29T20:37:51.967Z,20.13
2023-04-29T20:40:19.106Z,18.53
2023-04-29T20:42:46.204Z,18.63
2023-04-29T20:45:13.345Z,21.77
2023-04-29T20:47:41.987Z,24.90
2023-04-29T20:50:09.601Z,16.80
2023-04-29T20:52:36.839Z,16.83
2023-04-29T20:55:04.415Z,17.60
2023-04-29T20:57:31.478Z,15.00
2023-04-29T20:59:58.530Z,16.67
2023-04-29T21:02:25.637Z,20.53
2023-04-29T21:04:54.093Z,23.13
2023-04-29T21:07:21.243Z,21.43
2023-04-29T21:09:48.311Z,19.97
2023-04-29T21:12:15.413Z,21.10
2023-04-29T21:14:42.938Z,18.50
2023-04-29T21:17:10.234Z,20.67
2023-04-29T21:19:37.367Z,19.40
2023-04-29T21:22:05.736Z,23.50
2023-04-29T21:24:32.858Z,18.00
2023-04-29T21:26:59.904Z,17.30
2023-04-29T21:29:26.982Z,18.57
2023-04-29T21:31:54.306Z,18.60
2023-04-29T21:34:21.551Z,19.13
2023-04-29T21:36:48.598Z,21.30
2023-04-29T21:39:17.047Z,19.27
2023-04-29T21:41:44.215Z,26.03
2023-04-29T21:44:12.375Z,18.90
2023-04-29T21:46:39.885Z,25.90
2023-04-29T21:49:06.979Z,17.70
2023-04-29T21:51:34.571Z,17.07
2023-04-29T21:54:01.731Z,21.63
2023-04-29T21:56:30.123Z,15.90
2023-04-29T21:58:57.244Z,18.60
2023-04-29T22:01:24.466Z,22.77
2023-04-29T22:03:51.661Z,16.57
2023-04-29T22:06:18.773Z,18.17
2023-04-29T22:08:45.889Z,19.63
2023-04-29T22:11:12.963Z,19.50
2023-04-29T22:13:41.413Z,16.67
2023-04-29T22:16:08.635Z,18.90
2023-04-29T22:18:35.765Z,15.40
2023-04-29T22:21:02.839Z,18.87
2023-04-29T22:23:29.894Z,15.20
2023-04-29T22:25:57.006Z,18.07
2023-04-29T22:28:24.146Z,17.87
2023-04-29T22:30:52.624Z,16.10
2023-04-29T22:33:19.752Z,18.07
2023-04-29T22:35:46.851Z,18.53
2023-04-29T22:38:14.016Z,19.27
2023-04-29T22:40:41.164Z,17.40
2023-04-29T22:43:08.285Z,23.40
2023-04-29T22:45:35.384Z,16.90
2023-04-29T22:48:03.904Z,14.40
2023-04-29T22:50:31.049Z,13.83
2023-04-29T22:52:58.078Z,13.40
2023-04-29T22:55:25.146Z,14.83
2023-04-29T22:57:52.282Z,14.10
2023-04-29T23:00:19.437Z,15.20
2023-04-29T23:02:46.522Z,17.50
2023-04-29T23:05:15.044Z,11.30
2023-04-29T23:07:42.098Z,15.13
2023-04-29T23:10:09.537Z,18.20
2023-04-29T23:12:36.595Z,13.60
2023-04-29T23:15:03.814Z,13.73
2023-04-29T23:17:30.954Z,12.93
2023-04-29T23:19:58.010Z,15.00
2023-04-29T23:22:26.407Z,14.33
2023-04-29T23:24:53.455Z,13.60
2023-04-29T23:27:20.520Z,13.00
2023-04-29T23:29:47.607Z,15.37
2023-04-29T23:32:14.688Z,16.13
2023-04-29T23:34:41.721Z,14.80
2023-04-29T23:37:08.767Z,15.10
2023-04-29T23:39:37.127Z,17.20
2023-04-29T23:42:04.272Z,14.13
2023-04-29T23:44:31.368Z,16.93
2023-04-29T23:46:58.465Z,27.33
2023-04-29T23:49:25.590Z,33.43
2023-04-29T23:51:52.698Z,17.67
2023-04-29T23:54:19.732Z,23.80
2023-04-29T23:56:48.164Z,31.57
2023-04-29T23:59:15.260Z,25.33
